This is the latest recevied weather packets stored in our database for station/object IU2PLZ-10. If no packets are shown the sender has not sent any weather packets the latest 10 day(s).
| Time | Temp. | Humidity | Pressure | Rain* | Wind** | Luminosity | Snow |
|---|---|---|---|---|---|---|---|
| 1777960981 | 17.78° C | 70% | 967.3 hPa | - | - | - | - |
| 1777960081 | 18.33° C | 69% | 967.2 hPa | - | - | - | - |
| 1777959180 | 18.33° C | 69% | 967.2 hPa | - | - | - | - |
| 1777958280 | 18.33° C | 74% | 967.3 hPa | - | - | - | - |
| 1777957380 | 17.22° C | 73% | 967.1 hPa | - | - | - | - |
| 1777956480 | 16.67° C | 74% | 966.3 hPa | - | - | - | - |
| 1777955580 | 16.67° C | 74% | 967 hPa | - | - | - | - |
| 1777954680 | 16.67° C | 73% | 966.9 hPa | - | - | - | - |
| 1777953780 | 16.67° C | 73% | 966.9 hPa | - | - | - | - |
| 1777952879 | 16.11° C | 73% | 966.2 hPa | - | - | - | - |
| 1777951979 | 16.67° C | 73% | 967 hPa | - | - | - | - |
| 1777951079 | 16.11° C | 74% | 966.1 hPa | - | - | - | - |
| 1777950179 | 16.67° C | 74% | 967.1 hPa | - | - | - | - |
| 1777949279 | 16.67° C | 73% | 967 hPa | - | - | - | - |
| 1777948379 | 16.67° C | 73% | 966.9 hPa | - | - | - | - |
| 1777947478 | 16.67° C | 73% | 967.1 hPa | - | - | - | - |
| 1777946578 | 16.11° C | 72% | 966.4 hPa | - | - | - | - |
| 1777945678 | 16.11° C | 72% | 966.6 hPa | - | - | - | - |
| 1777944778 | 16.67° C | 71% | 967.3 hPa | - | - | - | - |
| 1777943878 | 16.67° C | 71% | 967.3 hPa | - | - | - | - |
| 1777942978 | 16.67° C | 71% | 966.7 hPa | - | - | - | - |
| 1777942077 | 17.22° C | 70% | 967.4 hPa | - | - | - | - |
| 1777941177 | 16.67° C | 69% | 966.8 hPa | - | - | - | - |
| 1777940277 | 17.22° C | 69% | 967.5 hPa | - | - | - | - |
| 1777939377 | 17.22° C | 69% | 967.8 hPa | - | - | - | - |
* Rain since midnight (hover to see other rain measurements)
** Current wind speed in m/s (hover to see current wind gust speed)